createdAt,value
2023-05-22T00:03:00.885Z,14.90
2023-05-22T00:06:43.505Z,14.80
2023-05-22T00:10:25.364Z,14.70
2023-05-22T00:14:07.260Z,14.60
2023-05-22T00:17:49.163Z,14.50
2023-05-22T00:21:37.628Z,14.40
2023-05-22T00:25:19.826Z,14.40
2023-05-22T00:29:01.762Z,14.20
2023-05-22T00:32:43.628Z,14.20
2023-05-22T00:36:25.531Z,14.10
2023-05-22T00:40:08.485Z,14.10
2023-05-22T00:43:51.355Z,13.90
2023-05-22T00:47:33.218Z,13.90
2023-05-22T00:51:15.488Z,13.80
2023-05-22T00:54:57.650Z,13.70
2023-05-22T00:58:39.756Z,13.60
2023-05-22T01:02:22.018Z,13.50
2023-05-22T01:06:04.341Z,13.50
2023-05-22T01:09:46.272Z,13.40
2023-05-22T01:13:48.186Z,13.30
2023-05-22T01:17:46.303Z,13.20
2023-05-22T01:21:52.362Z,13.20
2023-05-22T01:25:58.723Z,13.10
2023-05-22T01:29:58.796Z,13.00
2023-05-22T01:33:51.332Z,12.90
2023-05-22T01:37:34.180Z,12.80
2023-05-22T01:41:17.150Z,12.80
2023-05-22T01:44:59.058Z,12.60
2023-05-22T01:48:40.915Z,12.50
2023-05-22T01:53:07.684Z,12.30
2023-05-22T01:56:55.795Z,12.20
2023-05-22T02:00:43.738Z,12.20
2023-05-22T02:04:27.236Z,12.10
2023-05-22T02:08:10.606Z,12.00
2023-05-22T02:11:52.639Z,12.00
2023-05-22T02:15:34.643Z,11.90
2023-05-22T02:19:16.726Z,11.80
2023-05-22T02:22:58.570Z,11.80
2023-05-22T02:26:40.602Z,11.70
2023-05-22T02:30:22.509Z,11.60
2023-05-22T02:34:06.570Z,11.60
2023-05-22T02:37:48.433Z,11.40
2023-05-22T02:41:30.398Z,11.40
2023-05-22T02:45:12.224Z,11.30
2023-05-22T02:48:54.048Z,11.30
2023-05-22T02:52:37.027Z,11.20
2023-05-22T02:56:19.013Z,11.10
2023-05-22T03:00:01.608Z,11.00
2023-05-22T03:03:43.874Z,11.00
2023-05-22T03:07:31.865Z,11.00
2023-05-22T03:11:13.714Z,10.90
2023-05-22T03:14:55.529Z,10.90
2023-05-22T03:18:37.447Z,10.90
2023-05-22T03:22:19.294Z,10.80
2023-05-22T03:26:01.582Z,10.70
2023-05-22T03:29:43.408Z,10.60
2023-05-22T03:33:25.321Z,10.50
2023-05-22T03:37:09.054Z,10.40
2023-05-22T03:40:50.940Z,10.30
2023-05-22T03:44:32.782Z,10.30
2023-05-22T03:48:14.669Z,10.20
2023-05-22T03:51:56.575Z,10.20
2023-05-22T03:55:38.416Z,10.20
2023-05-22T03:59:20.393Z,10.10
2023-05-22T04:03:02.311Z,10.10
2023-05-22T04:06:44.449Z,10.10
2023-05-22T04:10:26.291Z,10.00
2023-05-22T04:14:08.565Z,10.00
2023-05-22T04:17:51.252Z,9.90
2023-05-22T04:21:36.099Z,9.80
2023-05-22T04:25:17.966Z,9.70
2023-05-22T04:28:59.806Z,9.70
2023-05-22T04:32:41.770Z,9.70
2023-05-22T04:36:26.106Z,9.70
2023-05-22T04:40:10.161Z,9.60
2023-05-22T04:43:53.013Z,9.70
2023-05-22T04:47:35.033Z,9.70
2023-05-22T04:51:16.977Z,9.60
2023-05-22T04:55:00.519Z,9.60
2023-05-22T04:58:43.094Z,9.50
2023-05-22T05:02:25.057Z,9.60
2023-05-22T05:06:08.451Z,9.50
2023-05-22T05:09:50.414Z,9.50
2023-05-22T05:13:32.394Z,9.50
2023-05-22T05:17:14.510Z,9.50
2023-05-22T05:20:56.430Z,9.50
2023-05-22T05:24:38.366Z,9.60
2023-05-22T05:28:20.541Z,9.70
2023-05-22T05:32:02.452Z,9.70
2023-05-22T05:35:44.309Z,9.80
2023-05-22T05:39:26.169Z,9.80
2023-05-22T05:43:09.348Z,9.90
2023-05-22T05:46:52.540Z,9.90
2023-05-22T05:50:34.453Z,10.00
2023-05-22T05:54:16.347Z,10.20
2023-05-22T05:57:58.183Z,10.40
2023-05-22T06:01:44.645Z,10.50
2023-05-22T06:05:27.079Z,10.70
2023-05-22T06:09:10.070Z,10.80
2023-05-22T06:12:52.055Z,10.90
2023-05-22T06:16:33.936Z,11.10
2023-05-22T06:20:15.900Z,11.30
2023-05-22T06:23:58.785Z,11.40
2023-05-22T06:27:40.994Z,11.60
2023-05-22T06:31:23.154Z,11.80
2023-05-22T06:35:05.373Z,12.00
2023-05-22T06:38:47.977Z,12.20
2023-05-22T06:42:29.892Z,12.30
2023-05-22T06:46:11.761Z,12.40
2023-05-22T06:49:53.631Z,12.60
2023-05-22T06:53:35.671Z,12.70
2023-05-22T06:57:17.589Z,12.80
2023-05-22T07:00:59.722Z,12.90
2023-05-22T07:04:41.638Z,13.10
2023-05-22T07:08:23.879Z,13.20
2023-05-22T07:12:06.632Z,13.30
2023-05-22T07:15:48.824Z,13.50
2023-05-22T07:19:31.112Z,13.60
2023-05-22T07:23:13.111Z,13.70
2023-05-22T07:26:54.996Z,13.70
2023-05-22T07:30:38.601Z,13.80
2023-05-22T07:34:20.881Z,13.80
2023-05-22T07:38:04.206Z,13.80
2023-05-22T07:41:50.257Z,13.90
2023-05-22T07:45:32.221Z,14.00
2023-05-22T07:49:19.466Z,14.10
2023-05-22T07:53:01.389Z,14.20
2023-05-22T07:56:43.393Z,14.30
2023-05-22T08:00:25.678Z,14.40
2023-05-22T08:04:08.223Z,14.50
2023-05-22T08:07:50.279Z,14.70
2023-05-22T08:11:32.273Z,14.90
2023-05-22T08:15:14.188Z,15.10
2023-05-22T08:18:56.086Z,15.20
2023-05-22T08:22:39.526Z,15.40
2023-05-22T08:26:21.451Z,15.60
2023-05-22T08:30:04.690Z,15.80
2023-05-22T08:33:46.770Z,16.10
2023-05-22T08:37:28.625Z,16.30
2023-05-22T08:41:11.624Z,16.70
2023-05-22T08:44:55.462Z,17.10
2023-05-22T08:48:38.321Z,17.40
2023-05-22T08:52:23.279Z,17.70
2023-05-22T08:56:07.218Z,17.90
2023-05-22T08:59:50.580Z,18.10
2023-05-22T09:03:32.940Z,18.30
2023-05-22T09:07:15.011Z,18.30
2023-05-22T09:10:57.050Z,18.50
2023-05-22T09:14:42.932Z,18.60
2023-05-22T09:18:29.293Z,18.70
2023-05-22T09:22:11.312Z,18.80
2023-05-22T09:25:59.080Z,18.90
2023-05-22T09:29:52.568Z,19.00
2023-05-22T09:33:37.619Z,19.20
2023-05-22T09:37:19.548Z,19.30
2023-05-22T09:41:01.829Z,19.50
2023-05-22T09:44:48.789Z,19.60
2023-05-22T09:48:39.716Z,19.60
2023-05-22T09:52:23.805Z,19.80
2023-05-22T09:56:11.440Z,19.90
2023-05-22T09:59:58.157Z,20.10
2023-05-22T10:03:43.093Z,20.20
2023-05-22T10:07:30.199Z,20.20
2023-05-22T10:11:12.983Z,20.30
2023-05-22T10:14:55.746Z,20.40
2023-05-22T10:18:38.484Z,20.50
2023-05-22T10:22:22.642Z,20.60
2023-05-22T10:26:06.113Z,20.70
2023-05-22T10:29:54.942Z,20.90
2023-05-22T10:33:48.754Z,21.10
2023-05-22T10:37:51.547Z,21.30
2023-05-22T10:41:34.811Z,21.60
2023-05-22T10:45:16.792Z,21.90
2023-05-22T10:48:58.761Z,22.20
2023-05-22T10:52:41.056Z,22.60
2023-05-22T10:56:25.318Z,23.00
2023-05-22T11:00:09.967Z,23.40
2023-05-22T11:03:59.001Z,23.70
2023-05-22T11:07:41.546Z,24.10
2023-05-22T11:11:28.226Z,24.70
2023-05-22T11:15:11.072Z,25.20
2023-05-22T11:19:22.658Z,25.70
2023-05-22T11:23:10.226Z,26.20
2023-05-22T11:27:08.170Z,26.80
2023-05-22T11:30:50.852Z,27.20
2023-05-22T11:34:32.780Z,27.70
2023-05-22T11:38:15.327Z,28.30
2023-05-22T11:41:57.278Z,28.90
2023-05-22T11:45:39.910Z,29.40
2023-05-22T11:49:24.185Z,30.10
2023-05-22T11:53:06.144Z,30.50
2023-05-22T11:56:48.696Z,31.00
2023-05-22T12:00:33.811Z,31.50
2023-05-22T12:04:16.139Z,32.00
2023-05-22T12:07:58.203Z,32.40
2023-05-22T12:11:40.084Z,32.70
2023-05-22T12:15:22.175Z,33.00
2023-05-22T12:19:09.128Z,33.20
2023-05-22T12:22:51.109Z,33.50
2023-05-22T12:26:33.217Z,33.70
2023-05-22T12:30:15.870Z,33.70
2023-05-22T12:33:58.010Z,33.90
2023-05-22T12:37:39.836Z,34.20
2023-05-22T12:41:21.693Z,34.40
2023-05-22T12:45:03.837Z,34.50
2023-05-22T12:48:45.773Z,34.50
2023-05-22T12:52:27.630Z,34.70
2023-05-22T12:56:09.496Z,34.90
2023-05-22T12:59:51.354Z,35.00
2023-05-22T13:03:33.362Z,35.00
2023-05-22T13:07:15.388Z,35.20
2023-05-22T13:10:57.488Z,35.40
2023-05-22T13:14:40.630Z,35.60
2023-05-22T13:18:22.750Z,35.70
2023-05-22T13:22:05.012Z,35.80
2023-05-22T13:25:46.843Z,35.80
2023-05-22T13:29:28.828Z,35.80
2023-05-22T13:33:10.950Z,35.80
2023-05-22T13:36:52.924Z,35.70
2023-05-22T13:40:34.771Z,35.70
2023-05-22T13:44:16.706Z,35.60
2023-05-22T13:47:58.716Z,35.50
2023-05-22T13:51:40.674Z,35.60
2023-05-22T13:55:23.001Z,35.60
2023-05-22T13:59:09.307Z,35.70
2023-05-22T14:02:51.702Z,35.60
2023-05-22T14:06:33.707Z,35.20
2023-05-22T14:10:15.764Z,34.50
2023-05-22T14:13:57.767Z,33.80
2023-05-22T14:17:39.662Z,32.80
2023-05-22T14:21:21.608Z,31.90
2023-05-22T14:25:03.596Z,31.20
2023-05-22T14:28:45.577Z,30.60
2023-05-22T14:32:27.607Z,30.10
2023-05-22T14:36:09.554Z,29.70
2023-05-22T14:39:51.392Z,29.30
2023-05-22T14:43:33.611Z,28.90
2023-05-22T14:47:15.544Z,28.70
2023-05-22T14:50:57.682Z,28.50
2023-05-22T14:54:39.596Z,28.30
2023-05-22T14:58:21.505Z,28.10
2023-05-22T15:02:03.619Z,28.00
2023-05-22T15:05:45.582Z,27.90
2023-05-22T15:09:27.522Z,27.80
2023-05-22T15:13:10.908Z,27.70
2023-05-22T15:16:52.755Z,27.60
2023-05-22T15:20:35.072Z,27.50
2023-05-22T15:24:16.982Z,27.40
2023-05-22T15:28:00.243Z,27.40
2023-05-22T15:31:42.165Z,27.40
2023-05-22T15:35:24.341Z,27.30
2023-05-22T15:39:06.600Z,27.20
2023-05-22T15:42:48.777Z,27.30
2023-05-22T15:46:30.798Z,27.30
2023-05-22T15:50:13.032Z,27.10
2023-05-22T15:53:54.888Z,27.00
2023-05-22T15:57:36.836Z,27.00
2023-05-22T16:01:18.808Z,27.00
2023-05-22T16:05:00.882Z,27.00
2023-05-22T16:08:42.761Z,27.00
2023-05-22T16:12:24.668Z,26.90
2023-05-22T16:16:06.701Z,26.90
2023-05-22T16:19:48.630Z,26.80
2023-05-22T16:23:30.603Z,26.70
2023-05-22T16:27:12.547Z,26.70
2023-05-22T16:30:54.430Z,26.70
2023-05-22T16:34:36.577Z,26.60
2023-05-22T16:38:18.454Z,26.60
2023-05-22T16:42:01.517Z,26.40
2023-05-22T16:45:47.481Z,26.30
2023-05-22T16:49:29.342Z,26.20
2023-05-22T16:53:11.236Z,26.10
2023-05-22T16:56:53.139Z,26.00
2023-05-22T17:00:36.233Z,26.00
2023-05-22T17:04:20.645Z,25.90
2023-05-22T17:08:03.144Z,25.80
2023-05-22T17:11:45.466Z,25.80
2023-05-22T17:15:27.341Z,25.80
2023-05-22T17:19:09.907Z,25.60
2023-05-22T17:22:52.496Z,25.60
2023-05-22T17:26:34.546Z,25.50
2023-05-22T17:30:16.541Z,25.50
2023-05-22T17:33:58.418Z,25.40
2023-05-22T17:37:40.570Z,25.30
2023-05-22T17:41:24.301Z,25.30
2023-05-22T17:45:06.856Z,25.30
2023-05-22T17:48:48.762Z,25.20
2023-05-22T17:52:30.678Z,25.20
2023-05-22T17:56:12.594Z,25.10
2023-05-22T17:59:54.643Z,25.10
2023-05-22T18:03:36.591Z,25.10
2023-05-22T18:07:19.992Z,25.10
2023-05-22T18:11:01.911Z,25.10
2023-05-22T18:14:43.824Z,25.00
2023-05-22T18:18:25.757Z,25.00
2023-05-22T18:22:07.638Z,24.80
2023-05-22T18:25:49.549Z,24.60
2023-05-22T18:29:31.485Z,24.50
2023-05-22T18:33:13.437Z,24.40
2023-05-22T18:36:55.429Z,24.20
2023-05-22T18:40:37.350Z,24.10
2023-05-22T18:44:19.188Z,23.90
2023-05-22T18:48:01.128Z,23.80
2023-05-22T18:51:45.080Z,23.60
2023-05-22T18:55:27.246Z,23.50
2023-05-22T18:59:09.100Z,23.40
2023-05-22T19:02:51.155Z,23.30
2023-05-22T19:06:33.103Z,23.10
2023-05-22T19:10:14.961Z,23.10
2023-05-22T19:13:56.816Z,23.00
2023-05-22T19:17:38.789Z,23.00
2023-05-22T19:21:20.721Z,22.90
2023-05-22T19:25:02.944Z,22.90
2023-05-22T19:28:45.024Z,22.80
2023-05-22T19:32:27.613Z,22.80
2023-05-22T19:36:09.983Z,22.70
2023-05-22T19:39:52.579Z,22.70
2023-05-22T19:43:35.379Z,22.60
2023-05-22T19:47:17.998Z,22.50
2023-05-22T19:51:00.221Z,22.40
2023-05-22T19:54:42.109Z,22.30
2023-05-22T19:58:29.098Z,22.20
2023-05-22T20:02:11.032Z,22.10
2023-05-22T20:05:55.747Z,22.10
2023-05-22T20:09:37.726Z,22.00
2023-05-22T20:13:19.634Z,21.90
2023-05-22T20:17:02.834Z,21.80
2023-05-22T20:20:45.472Z,21.70
2023-05-22T20:24:27.804Z,21.70
2023-05-22T20:28:09.719Z,21.50
2023-05-22T20:31:54.663Z,21.50
2023-05-22T20:35:37.240Z,21.40
2023-05-22T20:39:19.173Z,21.30
2023-05-22T20:43:02.730Z,21.10
2023-05-22T20:46:44.616Z,21.00
2023-05-22T20:50:27.193Z,20.90
2023-05-22T20:54:09.009Z,20.80
2023-05-22T20:57:50.866Z,20.70
2023-05-22T21:01:32.828Z,20.60
2023-05-22T21:05:14.686Z,20.50
2023-05-22T21:08:59.768Z,20.30
2023-05-22T21:12:41.711Z,20.20
2023-05-22T21:16:24.882Z,20.10
2023-05-22T21:20:08.172Z,20.00
2023-05-22T21:23:50.851Z,20.00
2023-05-22T21:27:32.716Z,19.90
2023-05-22T21:31:14.643Z,19.90
2023-05-22T21:34:56.606Z,19.80
2023-05-22T21:38:38.423Z,19.80
2023-05-22T21:42:20.414Z,19.70
2023-05-22T21:46:02.235Z,19.70
2023-05-22T21:49:44.062Z,19.70
2023-05-22T21:53:25.979Z,19.70
2023-05-22T21:57:07.955Z,19.60
2023-05-22T22:00:49.795Z,19.60
2023-05-22T22:04:31.632Z,19.40
2023-05-22T22:08:13.429Z,19.40
2023-05-22T22:11:55.276Z,19.20
2023-05-22T22:15:37.195Z,19.10
2023-05-22T22:19:19.135Z,19.00
2023-05-22T22:23:01.259Z,18.80
2023-05-22T22:26:45.638Z,18.70
2023-05-22T22:30:27.590Z,18.60
2023-05-22T22:34:09.468Z,18.50
2023-05-22T22:37:51.396Z,18.40
2023-05-22T22:41:33.256Z,18.30
2023-05-22T22:45:15.183Z,18.10
2023-05-22T22:48:58.883Z,18.00
2023-05-22T22:52:45.367Z,17.90
2023-05-22T22:56:30.175Z,17.90
2023-05-22T23:00:13.339Z,17.80
2023-05-22T23:03:55.344Z,17.70
2023-05-22T23:07:37.531Z,17.60
2023-05-22T23:11:19.425Z,17.50
2023-05-22T23:15:01.926Z,17.40
2023-05-22T23:18:43.818Z,17.30
2023-05-22T23:22:25.649Z,17.20
2023-05-22T23:26:07.470Z,17.20
2023-05-22T23:29:49.316Z,17.10
2023-05-22T23:33:31.183Z,17.00
2023-05-22T23:37:13.060Z,16.90
2023-05-22T23:40:54.912Z,16.80
2023-05-22T23:44:37.288Z,16.80
2023-05-22T23:48:19.110Z,16.70
2023-05-22T23:52:00.995Z,16.60
2023-05-22T23:55:43.016Z,16.50
2023-05-22T23:59:24.987Z,16.40
